sensor_id;sensor_type;location;lat;lon;timestamp;temperature;humidity
1592;DHT22;789;51.612;7.510;2023-06-24T00:02:00;21.10;1.00
1592;DHT22;789;51.612;7.510;2023-06-24T00:04:28;21.00;1.00
1592;DHT22;789;51.612;7.510;2023-06-24T00:06:55;21.00;1.00
1592;DHT22;789;51.612;7.510;2023-06-24T00:09:24;21.00;1.00
1592;DHT22;789;51.612;7.510;2023-06-24T00:11:51;21.00;1.00
1592;DHT22;789;51.612;7.510;2023-06-24T00:14:18;21.00;1.00
1592;DHT22;789;51.612;7.510;2023-06-24T00:16:46;21.00;1.00
1592;DHT22;789;51.612;7.510;2023-06-24T00:19:17;20.90;1.00
1592;DHT22;789;51.612;7.510;2023-06-24T00:21:46;20.90;1.00
1592;DHT22;789;51.612;7.510;2023-06-24T00:24:12;20.90;1.00
1592;DHT22;789;51.612;7.510;2023-06-24T00:26:39;20.80;1.00
1592;DHT22;789;51.612;7.510;2023-06-24T00:29:06;20.80;1.00
1592;DHT22;789;51.612;7.510;2023-06-24T00:31:33;20.80;1.00
1592;DHT22;789;51.612;7.510;2023-06-24T00:34:00;20.80;1.00
1592;DHT22;789;51.612;7.510;2023-06-24T00:36:27;20.70;1.00
1592;DHT22;789;51.612;7.510;2023-06-24T00:38:55;20.70;1.00
1592;DHT22;789;51.612;7.510;2023-06-24T00:41:22;20.70;1.00
1592;DHT22;789;51.612;7.510;2023-06-24T00:43:49;20.60;1.00
1592;DHT22;789;51.612;7.510;2023-06-24T00:46:16;20.60;1.00
1592;DHT22;789;51.612;7.510;2023-06-24T00:48:45;20.50;1.00
1592;DHT22;789;51.612;7.510;2023-06-24T00:51:12;20.50;1.00
1592;DHT22;789;51.612;7.510;2023-06-24T00:53:39;20.50;1.00
1592;DHT22;789;51.612;7.510;2023-06-24T00:56:07;20.50;1.00
1592;DHT22;789;51.612;7.510;2023-06-24T00:58:35;20.40;1.00
1592;DHT22;789;51.612;7.510;2023-06-24T01:01:04;20.30;1.00
1592;DHT22;789;51.612;7.510;2023-06-24T01:03:36;20.30;1.00
1592;DHT22;789;51.612;7.510;2023-06-24T01:06:03;20.20;1.00
1592;DHT22;789;51.612;7.510;2023-06-24T01:08:30;20.20;1.00
1592;DHT22;789;51.612;7.510;2023-06-24T01:10:57;20.20;1.00
1592;DHT22;789;51.612;7.510;2023-06-24T01:13:25;20.20;1.00
1592;DHT22;789;51.612;7.510;2023-06-24T01:15:52;20.10;1.00
1592;DHT22;789;51.612;7.510;2023-06-24T01:18:23;20.10;1.00
1592;DHT22;789;51.612;7.510;2023-06-24T01:20:55;20.10;1.00
1592;DHT22;789;51.612;7.510;2023-06-24T01:27:24;20.00;1.00
1592;DHT22;789;51.612;7.510;2023-06-24T01:30:12;20.00;1.00
1592;DHT22;789;51.612;7.510;2023-06-24T01:32:46;20.00;1.00
1592;DHT22;789;51.612;7.510;2023-06-24T01:35:16;20.00;1.00
1592;DHT22;789;51.612;7.510;2023-06-24T01:37:48;20.00;1.00
1592;DHT22;789;51.612;7.510;2023-06-24T01:40:21;20.00;1.00
1592;DHT22;789;51.612;7.510;2023-06-24T01:42:49;20.00;1.00
1592;DHT22;789;51.612;7.510;2023-06-24T01:45:19;20.00;1.00
1592;DHT22;789;51.612;7.510;2023-06-24T01:47:56;19.90;1.00
1592;DHT22;789;51.612;7.510;2023-06-24T01:50:25;19.90;1.00
1592;DHT22;789;51.612;7.510;2023-06-24T01:52:53;19.80;1.00
1592;DHT22;789;51.612;7.510;2023-06-24T01:55:23;19.80;1.00
1592;DHT22;789;51.612;7.510;2023-06-24T01:57:52;19.70;1.00
1592;DHT22;789;51.612;7.510;2023-06-24T02:00:19;19.70;1.00
1592;DHT22;789;51.612;7.510;2023-06-24T02:02:50;19.70;1.00
1592;DHT22;789;51.612;7.510;2023-06-24T02:05:17;19.70;1.00
1592;DHT22;789;51.612;7.510;2023-06-24T02:07:45;19.80;1.00
1592;DHT22;789;51.612;7.510;2023-06-24T02:10:14;19.70;1.00
1592;DHT22;789;51.612;7.510;2023-06-24T02:12:43;19.70;1.00
1592;DHT22;789;51.612;7.510;2023-06-24T02:15:10;19.80;1.00
1592;DHT22;789;51.612;7.510;2023-06-24T02:17:39;19.70;1.00
1592;DHT22;789;51.612;7.510;2023-06-24T02:20:09;19.70;1.00
1592;DHT22;789;51.612;7.510;2023-06-24T02:22:38;19.60;1.00
1592;DHT22;789;51.612;7.510;2023-06-24T02:25:06;19.60;1.00
1592;DHT22;789;51.612;7.510;2023-06-24T02:27:35;19.60;1.00
1592;DHT22;789;51.612;7.510;2023-06-24T02:30:03;19.50;1.00
1592;DHT22;789;51.612;7.510;2023-06-24T02:32:31;19.50;1.00
1592;DHT22;789;51.612;7.510;2023-06-24T02:34:58;19.50;1.00
1592;DHT22;789;51.612;7.510;2023-06-24T02:37:26;19.40;1.00
1592;DHT22;789;51.612;7.510;2023-06-24T02:39:53;19.40;1.00
1592;DHT22;789;51.612;7.510;2023-06-24T02:42:20;19.40;1.00
1592;DHT22;789;51.612;7.510;2023-06-24T02:44:46;19.40;1.00
1592;DHT22;789;51.612;7.510;2023-06-24T02:47:17;19.50;1.00
1592;DHT22;789;51.612;7.510;2023-06-24T02:49:45;19.50;1.00
1592;DHT22;789;51.612;7.510;2023-06-24T02:52:13;19.40;1.00
1592;DHT22;789;51.612;7.510;2023-06-24T02:54:42;19.40;1.00
1592;DHT22;789;51.612;7.510;2023-06-24T02:57:09;19.40;1.00
1592;DHT22;789;51.612;7.510;2023-06-24T02:59:36;19.40;1.00
1592;DHT22;789;51.612;7.510;2023-06-24T03:02:03;19.30;1.00
1592;DHT22;789;51.612;7.510;2023-06-24T03:04:30;19.30;1.00
1592;DHT22;789;51.612;7.510;2023-06-24T03:06:57;19.30;1.00
1592;DHT22;789;51.612;7.510;2023-06-24T03:09:26;19.30;1.00
1592;DHT22;789;51.612;7.510;2023-06-24T03:11:55;19.30;1.00
1592;DHT22;789;51.612;7.510;2023-06-24T03:14:21;19.40;1.00
1592;DHT22;789;51.612;7.510;2023-06-24T03:16:48;19.30;1.00
1592;DHT22;789;51.612;7.510;2023-06-24T03:19:15;19.30;1.00
1592;DHT22;789;51.612;7.510;2023-06-24T03:21:41;19.20;1.00
1592;DHT22;789;51.612;7.510;2023-06-24T03:24:08;19.20;1.00
1592;DHT22;789;51.612;7.510;2023-06-24T03:26:37;19.20;1.00
1592;DHT22;789;51.612;7.510;2023-06-24T03:29:06;19.20;1.00
1592;DHT22;789;51.612;7.510;2023-06-24T03:31:33;19.20;1.00
1592;DHT22;789;51.612;7.510;2023-06-24T03:34:00;19.20;1.00
1592;DHT22;789;51.612;7.510;2023-06-24T03:36:27;19.20;1.00
1592;DHT22;789;51.612;7.510;2023-06-24T03:38:53;19.20;1.00
1592;DHT22;789;51.612;7.510;2023-06-24T03:41:20;19.20;1.00
1592;DHT22;789;51.612;7.510;2023-06-24T03:43:48;19.20;1.00
1592;DHT22;789;51.612;7.510;2023-06-24T03:46:16;19.20;1.00
1592;DHT22;789;51.612;7.510;2023-06-24T03:48:43;19.20;1.00
1592;DHT22;789;51.612;7.510;2023-06-24T03:51:10;19.20;1.00
1592;DHT22;789;51.612;7.510;2023-06-24T03:53:36;19.20;1.00
1592;DHT22;789;51.612;7.510;2023-06-24T03:56:04;19.60;1.00
1592;DHT22;789;51.612;7.510;2023-06-24T03:58:31;19.20;1.00
1592;DHT22;789;51.612;7.510;2023-06-24T04:01:02;19.20;1.00
1592;DHT22;789;51.612;7.510;2023-06-24T04:03:31;19.30;1.00
1592;DHT22;789;51.612;7.510;2023-06-24T04:06:00;19.30;1.00
1592;DHT22;789;51.612;7.510;2023-06-24T04:08:28;19.30;1.00
1592;DHT22;789;51.612;7.510;2023-06-24T04:10:55;19.40;1.00
1592;DHT22;789;51.612;7.510;2023-06-24T04:13:22;19.30;1.00
1592;DHT22;789;51.612;7.510;2023-06-24T04:15:50;19.40;1.00
1592;DHT22;789;51.612;7.510;2023-06-24T04:18:17;19.40;1.00
1592;DHT22;789;51.612;7.510;2023-06-24T04:20:45;19.40;1.00
1592;DHT22;789;51.612;7.510;2023-06-24T04:23:13;19.50;1.00
1592;DHT22;789;51.612;7.510;2023-06-24T04:25:41;19.50;1.00
1592;DHT22;789;51.612;7.510;2023-06-24T04:28:08;19.50;1.00
1592;DHT22;789;51.612;7.510;2023-06-24T04:30:35;19.50;1.00
1592;DHT22;789;51.612;7.510;2023-06-24T04:33:03;19.50;1.00
1592;DHT22;789;51.612;7.510;2023-06-24T04:35:30;19.50;1.00
1592;DHT22;789;51.612;7.510;2023-06-24T04:37:58;19.60;1.00
1592;DHT22;789;51.612;7.510;2023-06-24T04:40:25;19.60;1.00
1592;DHT22;789;51.612;7.510;2023-06-24T04:42:52;19.60;1.00
1592;DHT22;789;51.612;7.510;2023-06-24T04:45:18;19.60;1.00
1592;DHT22;789;51.612;7.510;2023-06-24T04:47:46;19.70;1.00
1592;DHT22;789;51.612;7.510;2023-06-24T04:50:13;19.70;1.00
1592;DHT22;789;51.612;7.510;2023-06-24T04:52:40;19.70;1.00
1592;DHT22;789;51.612;7.510;2023-06-24T04:55:08;19.70;1.00
1592;DHT22;789;51.612;7.510;2023-06-24T04:57:35;19.80;1.00
1592;DHT22;789;51.612;7.510;2023-06-24T05:00:03;19.90;1.00
1592;DHT22;789;51.612;7.510;2023-06-24T05:02:30;20.00;1.00
1592;DHT22;789;51.612;7.510;2023-06-24T05:04:58;20.10;1.00
1592;DHT22;789;51.612;7.510;2023-06-24T05:07:24;20.20;1.00
1592;DHT22;789;51.612;7.510;2023-06-24T05:09:51;20.30;1.00
1592;DHT22;789;51.612;7.510;2023-06-24T05:12:19;20.40;1.00
1592;DHT22;789;51.612;7.510;2023-06-24T05:14:49;20.70;1.00
1592;DHT22;789;51.612;7.510;2023-06-24T05:17:17;20.80;1.00
1592;DHT22;789;51.612;7.510;2023-06-24T05:19:44;21.00;1.00
1592;DHT22;789;51.612;7.510;2023-06-24T05:22:11;21.20;1.00
1592;DHT22;789;51.612;7.510;2023-06-24T05:24:38;21.40;1.00
1592;DHT22;789;51.612;7.510;2023-06-24T05:27:06;21.60;1.00
1592;DHT22;789;51.612;7.510;2023-06-24T05:29:37;21.80;1.00
1592;DHT22;789;51.612;7.510;2023-06-24T05:32:05;22.00;1.00
1592;DHT22;789;51.612;7.510;2023-06-24T05:34:32;22.30;1.00
1592;DHT22;789;51.612;7.510;2023-06-24T05:36:59;22.50;1.00
1592;DHT22;789;51.612;7.510;2023-06-24T05:39:26;22.60;1.00
1592;DHT22;789;51.612;7.510;2023-06-24T05:41:52;22.70;1.00
1592;DHT22;789;51.612;7.510;2023-06-24T05:44:20;22.70;1.00
1592;DHT22;789;51.612;7.510;2023-06-24T05:46:49;22.80;1.00
1592;DHT22;789;51.612;7.510;2023-06-24T05:49:16;23.00;1.00
1592;DHT22;789;51.612;7.510;2023-06-24T05:51:43;23.10;1.00
1592;DHT22;789;51.612;7.510;2023-06-24T05:54:09;23.20;1.00
1592;DHT22;789;51.612;7.510;2023-06-24T05:56:37;23.30;1.00
1592;DHT22;789;51.612;7.510;2023-06-24T05:59:04;23.50;1.00
1592;DHT22;789;51.612;7.510;2023-06-24T06:01:31;23.50;1.00
1592;DHT22;789;51.612;7.510;2023-06-24T06:03:59;23.60;1.00
1592;DHT22;789;51.612;7.510;2023-06-24T06:06:25;23.60;1.00
1592;DHT22;789;51.612;7.510;2023-06-24T06:08:52;23.70;1.00
1592;DHT22;789;51.612;7.510;2023-06-24T06:11:19;23.80;1.00
1592;DHT22;789;51.612;7.510;2023-06-24T06:13:46;23.90;1.00
1592;DHT22;789;51.612;7.510;2023-06-24T06:16:14;24.10;1.00
1592;DHT22;789;51.612;7.510;2023-06-24T06:18:41;24.30;1.00
1592;DHT22;789;51.612;7.510;2023-06-24T06:21:09;24.40;1.00
1592;DHT22;789;51.612;7.510;2023-06-24T06:23:36;24.50;1.00
1592;DHT22;789;51.612;7.510;2023-06-24T06:26:03;24.60;1.00
1592;DHT22;789;51.612;7.510;2023-06-24T06:28:30;24.70;1.00
1592;DHT22;789;51.612;7.510;2023-06-24T06:30:56;24.80;1.00
1592;DHT22;789;51.612;7.510;2023-06-24T06:33:23;25.00;1.00
1592;DHT22;789;51.612;7.510;2023-06-24T06:35:50;25.10;1.00
1592;DHT22;789;51.612;7.510;2023-06-24T06:38:18;25.20;1.00
1592;DHT22;789;51.612;7.510;2023-06-24T06:40:45;25.30;1.00
1592;DHT22;789;51.612;7.510;2023-06-24T06:43:11;25.40;1.00
1592;DHT22;789;51.612;7.510;2023-06-24T06:45:38;25.60;1.00
1592;DHT22;789;51.612;7.510;2023-06-24T06:48:05;25.40;1.00
1592;DHT22;789;51.612;7.510;2023-06-24T06:50:35;25.50;1.00
1592;DHT22;789;51.612;7.510;2023-06-24T06:53:02;25.60;1.00
1592;DHT22;789;51.612;7.510;2023-06-24T06:55:30;25.60;1.00
1592;DHT22;789;51.612;7.510;2023-06-24T06:57:56;25.70;1.00
1592;DHT22;789;51.612;7.510;2023-06-24T07:00:24;25.80;1.00
1592;DHT22;789;51.612;7.510;2023-06-24T07:02:51;26.00;1.00
1592;DHT22;789;51.612;7.510;2023-06-24T07:05:18;26.30;1.00
1592;DHT22;789;51.612;7.510;2023-06-24T07:07:46;26.60;1.00
1592;DHT22;789;51.612;7.510;2023-06-24T07:10:16;26.90;1.00
1592;DHT22;789;51.612;7.510;2023-06-24T07:12:44;27.00;1.00
1592;DHT22;789;51.612;7.510;2023-06-24T07:15:10;27.00;1.00
1592;DHT22;789;51.612;7.510;2023-06-24T07:17:37;27.00;1.00
1592;DHT22;789;51.612;7.510;2023-06-24T07:20:05;27.00;1.00
1592;DHT22;789;51.612;7.510;2023-06-24T07:22:32;26.90;1.00
1592;DHT22;789;51.612;7.510;2023-06-24T07:24:59;27.00;1.00
1592;DHT22;789;51.612;7.510;2023-06-24T07:27:26;27.10;1.00
1592;DHT22;789;51.612;7.510;2023-06-24T07:29:56;27.20;1.00
1592;DHT22;789;51.612;7.510;2023-06-24T07:32:26;27.20;1.00
1592;DHT22;789;51.612;7.510;2023-06-24T07:34:56;27.30;1.00
1592;DHT22;789;51.612;7.510;2023-06-24T07:37:23;27.40;1.00
1592;DHT22;789;51.612;7.510;2023-06-24T07:39:50;27.50;1.00
1592;DHT22;789;51.612;7.510;2023-06-24T07:42:17;27.80;1.00
1592;DHT22;789;51.612;7.510;2023-06-24T07:44:44;28.10;1.00
1592;DHT22;789;51.612;7.510;2023-06-24T07:47:12;28.50;1.00
1592;DHT22;789;51.612;7.510;2023-06-24T07:49:44;28.90;1.00
1592;DHT22;789;51.612;7.510;2023-06-24T07:52:10;29.60;1.00
1592;DHT22;789;51.612;7.510;2023-06-24T07:54:37;29.80;1.00
1592;DHT22;789;51.612;7.510;2023-06-24T07:57:04;30.00;1.00
1592;DHT22;789;51.612;7.510;2023-06-24T07:59:31;30.00;1.00
1592;DHT22;789;51.612;7.510;2023-06-24T08:01:57;30.20;1.00
1592;DHT22;789;51.612;7.510;2023-06-24T08:04:30;30.20;1.00
1592;DHT22;789;51.612;7.510;2023-06-24T08:07:02;30.70;1.00
1592;DHT22;789;51.612;7.510;2023-06-24T08:09:29;31.30;1.00
1592;DHT22;789;51.612;7.510;2023-06-24T08:12:02;31.60;1.00
1592;DHT22;789;51.612;7.510;2023-06-24T08:14:29;31.90;1.00
1592;DHT22;789;51.612;7.510;2023-06-24T08:16:56;32.10;1.00
1592;DHT22;789;51.612;7.510;2023-06-24T08:19:23;32.40;1.00
1592;DHT22;789;51.612;7.510;2023-06-24T08:21:51;32.90;1.00
1592;DHT22;789;51.612;7.510;2023-06-24T08:24:19;33.40;1.00
1592;DHT22;789;51.612;7.510;2023-06-24T08:26:45;34.00;1.00
1592;DHT22;789;51.612;7.510;2023-06-24T08:29:12;34.80;1.00
1592;DHT22;789;51.612;7.510;2023-06-24T08:31:39;35.70;1.00
1592;DHT22;789;51.612;7.510;2023-06-24T08:34:08;36.40;1.00
1592;DHT22;789;51.612;7.510;2023-06-24T08:36:35;36.90;1.00
1592;DHT22;789;51.612;7.510;2023-06-24T08:39:04;37.10;1.00
1592;DHT22;789;51.612;7.510;2023-06-24T08:41:33;36.90;1.00
1592;DHT22;789;51.612;7.510;2023-06-24T08:44:00;36.60;1.00
1592;DHT22;789;51.612;7.510;2023-06-24T08:46:29;36.80;1.00
1592;DHT22;789;51.612;7.510;2023-06-24T08:49:02;37.20;1.00
1592;DHT22;789;51.612;7.510;2023-06-24T08:51:40;37.50;1.00
1592;DHT22;789;51.612;7.510;2023-06-24T08:54:10;37.50;1.00
1592;DHT22;789;51.612;7.510;2023-06-24T08:56:37;37.50;1.00
1592;DHT22;789;51.612;7.510;2023-06-24T08:59:05;37.70;1.00
1592;DHT22;789;51.612;7.510;2023-06-24T09:01:32;38.50;1.00
1592;DHT22;789;51.612;7.510;2023-06-24T09:03:58;38.90;1.00
1592;DHT22;789;51.612;7.510;2023-06-24T09:06:27;39.10;1.00
1592;DHT22;789;51.612;7.510;2023-06-24T09:08:56;39.20;1.00
1592;DHT22;789;51.612;7.510;2023-06-24T09:11:25;39.50;1.00
1592;DHT22;789;51.612;7.510;2023-06-24T09:13:55;39.80;1.00
1592;DHT22;789;51.612;7.510;2023-06-24T09:16:23;39.70;1.00
1592;DHT22;789;51.612;7.510;2023-06-24T09:18:51;39.70;1.00
1592;DHT22;789;51.612;7.510;2023-06-24T09:21:22;39.90;1.00
1592;DHT22;789;51.612;7.510;2023-06-24T09:23:52;40.60;1.00
1592;DHT22;789;51.612;7.510;2023-06-24T09:26:19;41.80;1.00
1592;DHT22;789;51.612;7.510;2023-06-24T09:28:49;42.90;1.00
1592;DHT22;789;51.612;7.510;2023-06-24T09:31:17;43.50;1.00
1592;DHT22;789;51.612;7.510;2023-06-24T09:33:45;43.90;1.00
1592;DHT22;789;51.612;7.510;2023-06-24T09:36:14;44.40;1.00
1592;DHT22;789;51.612;7.510;2023-06-24T09:38:42;44.70;1.00
1592;DHT22;789;51.612;7.510;2023-06-24T09:41:10;44.60;1.00
1592;DHT22;789;51.612;7.510;2023-06-24T09:43:37;43.80;1.00
1592;DHT22;789;51.612;7.510;2023-06-24T09:46:07;43.00;1.00
1592;DHT22;789;51.612;7.510;2023-06-24T09:48:35;42.70;1.00
1592;DHT22;789;51.612;7.510;2023-06-24T09:51:05;43.00;1.00
1592;DHT22;789;51.612;7.510;2023-06-24T09:53:34;43.40;1.00
1592;DHT22;789;51.612;7.510;2023-06-24T09:56:03;43.20;1.00
1592;DHT22;789;51.612;7.510;2023-06-24T09:58:32;43.30;1.00
1592;DHT22;789;51.612;7.510;2023-06-24T10:01:02;42.70;1.00
1592;DHT22;789;51.612;7.510;2023-06-24T10:03:33;42.20;1.00
1592;DHT22;789;51.612;7.510;2023-06-24T10:06:04;42.50;1.00
1592;DHT22;789;51.612;7.510;2023-06-24T10:08:31;42.90;1.00
1592;DHT22;789;51.612;7.510;2023-06-24T10:10:59;43.90;1.00
1592;DHT22;789;51.612;7.510;2023-06-24T10:13:29;44.90;1.00
1592;DHT22;789;51.612;7.510;2023-06-24T10:15:57;44.80;1.00
1592;DHT22;789;51.612;7.510;2023-06-24T10:18:35;43.80;1.00
1592;DHT22;789;51.612;7.510;2023-06-24T10:21:03;42.20;1.00
1592;DHT22;789;51.612;7.510;2023-06-24T10:23:40;41.10;1.00
1592;DHT22;789;51.612;7.510;2023-06-24T10:26:08;41.10;1.00
1592;DHT22;789;51.612;7.510;2023-06-24T10:29:09;41.50;1.00
1592;DHT22;789;51.612;7.510;2023-06-24T10:31:51;42.40;1.00
1592;DHT22;789;51.612;7.510;2023-06-24T10:34:31;43.60;1.00
1592;DHT22;789;51.612;7.510;2023-06-24T10:37:00;44.20;1.00
1592;DHT22;789;51.612;7.510;2023-06-24T10:39:55;43.90;1.00
1592;DHT22;789;51.612;7.510;2023-06-24T10:42:30;42.70;1.00
1592;DHT22;789;51.612;7.510;2023-06-24T10:45:01;41.70;1.00
1592;DHT22;789;51.612;7.510;2023-06-24T10:47:29;41.40;1.00
1592;DHT22;789;51.612;7.510;2023-06-24T10:49:57;41.10;1.00
1592;DHT22;789;51.612;7.510;2023-06-24T10:52:25;40.50;1.00
1592;DHT22;789;51.612;7.510;2023-06-24T10:54:53;40.10;1.00
1592;DHT22;789;51.612;7.510;2023-06-24T10:57:24;40.60;1.00
1592;DHT22;789;51.612;7.510;2023-06-24T10:59:52;41.10;1.00
1592;DHT22;789;51.612;7.510;2023-06-24T11:02:20;41.90;1.00
1592;DHT22;789;51.612;7.510;2023-06-24T11:04:48;42.30;1.00
1592;DHT22;789;51.612;7.510;2023-06-24T11:07:17;42.70;1.00
1592;DHT22;789;51.612;7.510;2023-06-24T11:09:49;43.60;1.00
1592;DHT22;789;51.612;7.510;2023-06-24T11:12:16;43.20;1.00
1592;DHT22;789;51.612;7.510;2023-06-24T11:14:44;42.70;1.00
1592;DHT22;789;51.612;7.510;2023-06-24T11:17:11;42.70;1.00
1592;DHT22;789;51.612;7.510;2023-06-24T11:19:38;42.20;1.00
1592;DHT22;789;51.612;7.510;2023-06-24T11:22:06;41.60;1.00
1592;DHT22;789;51.612;7.510;2023-06-24T11:24:35;40.90;1.00
1592;DHT22;789;51.612;7.510;2023-06-24T11:27:04;41.20;1.00
1592;DHT22;789;51.612;7.510;2023-06-24T11:29:32;42.00;1.00
1592;DHT22;789;51.612;7.510;2023-06-24T11:32:00;42.10;1.00
1592;DHT22;789;51.612;7.510;2023-06-24T11:34:26;41.50;1.00
1592;DHT22;789;51.612;7.510;2023-06-24T11:36:53;41.10;1.00
1592;DHT22;789;51.612;7.510;2023-06-24T11:39:21;40.70;1.00
1592;DHT22;789;51.612;7.510;2023-06-24T11:41:49;39.80;1.00
1592;DHT22;789;51.612;7.510;2023-06-24T11:44:23;38.70;1.00
1592;DHT22;789;51.612;7.510;2023-06-24T11:46:50;37.10;1.00
1592;DHT22;789;51.612;7.510;2023-06-24T11:49:18;35.70;1.00
1592;DHT22;789;51.612;7.510;2023-06-24T11:51:47;34.40;1.00
1592;DHT22;789;51.612;7.510;2023-06-24T11:54:15;33.70;1.00
1592;DHT22;789;51.612;7.510;2023-06-24T11:56:44;33.20;1.00
1592;DHT22;789;51.612;7.510;2023-06-24T11:59:19;32.90;1.00
1592;DHT22;789;51.612;7.510;2023-06-24T12:01:53;32.50;1.00
1592;DHT22;789;51.612;7.510;2023-06-24T12:04:21;32.30;1.00
1592;DHT22;789;51.612;7.510;2023-06-24T12:06:53;32.10;1.00
1592;DHT22;789;51.612;7.510;2023-06-24T12:09:20;31.90;1.00
1592;DHT22;789;51.612;7.510;2023-06-24T12:11:47;31.70;1.00
1592;DHT22;789;51.612;7.510;2023-06-24T12:14:18;31.50;1.00
1592;DHT22;789;51.612;7.510;2023-06-24T12:16:45;31.20;1.00
1592;DHT22;789;51.612;7.510;2023-06-24T12:19:12;31.10;1.00
1592;DHT22;789;51.612;7.510;2023-06-24T12:21:39;30.90;1.00
1592;DHT22;789;51.612;7.510;2023-06-24T12:24:06;30.60;1.00
1592;DHT22;789;51.612;7.510;2023-06-24T12:26:34;30.50;1.00
1592;DHT22;789;51.612;7.510;2023-06-24T12:29:02;30.50;1.00
1592;DHT22;789;51.612;7.510;2023-06-24T12:31:33;30.40;1.00
1592;DHT22;789;51.612;7.510;2023-06-24T12:34:00;30.30;1.00
1592;DHT22;789;51.612;7.510;2023-06-24T12:36:27;30.20;1.00
1592;DHT22;789;51.612;7.510;2023-06-24T12:38:54;30.10;1.00
1592;DHT22;789;51.612;7.510;2023-06-24T12:41:21;30.10;1.00
1592;DHT22;789;51.612;7.510;2023-06-24T12:43:47;30.10;1.00
1592;DHT22;789;51.612;7.510;2023-06-24T12:46:14;30.10;1.00
1592;DHT22;789;51.612;7.510;2023-06-24T12:48:42;29.90;1.00
1592;DHT22;789;51.612;7.510;2023-06-24T12:51:09;29.90;1.00
1592;DHT22;789;51.612;7.510;2023-06-24T12:53:36;29.90;1.00
1592;DHT22;789;51.612;7.510;2023-06-24T12:56:03;30.00;1.00
1592;DHT22;789;51.612;7.510;2023-06-24T12:58:30;30.10;1.00
1592;DHT22;789;51.612;7.510;2023-06-24T13:00:57;30.10;1.00
1592;DHT22;789;51.612;7.510;2023-06-24T13:03:24;30.20;1.00
1592;DHT22;789;51.612;7.510;2023-06-24T13:05:52;30.30;1.00
1592;DHT22;789;51.612;7.510;2023-06-24T13:08:19;30.30;1.00
1592;DHT22;789;51.612;7.510;2023-06-24T13:10:45;30.40;1.00
1592;DHT22;789;51.612;7.510;2023-06-24T13:13:12;30.40;1.00
1592;DHT22;789;51.612;7.510;2023-06-24T13:15:41;30.40;1.00
1592;DHT22;789;51.612;7.510;2023-06-24T13:18:08;30.50;1.00
1592;DHT22;789;51.612;7.510;2023-06-24T13:20:35;30.60;1.00
1592;DHT22;789;51.612;7.510;2023-06-24T13:23:03;30.60;1.00
1592;DHT22;789;51.612;7.510;2023-06-24T13:25:30;30.60;1.00
1592;DHT22;789;51.612;7.510;2023-06-24T13:27:57;30.70;1.00
1592;DHT22;789;51.612;7.510;2023-06-24T13:30:23;30.70;1.00
1592;DHT22;789;51.612;7.510;2023-06-24T13:32:50;30.70;1.00
1592;DHT22;789;51.612;7.510;2023-06-24T13:35:17;30.70;1.00
1592;DHT22;789;51.612;7.510;2023-06-24T13:37:44;30.70;1.00
1592;DHT22;789;51.612;7.510;2023-06-24T13:40:13;30.80;1.00
1592;DHT22;789;51.612;7.510;2023-06-24T13:42:40;30.90;1.00
1592;DHT22;789;51.612;7.510;2023-06-24T13:45:07;30.90;1.00
1592;DHT22;789;51.612;7.510;2023-06-24T13:47:34;30.80;1.00
1592;DHT22;789;51.612;7.510;2023-06-24T13:50:01;30.80;1.00
1592;DHT22;789;51.612;7.510;2023-06-24T13:52:28;30.90;1.00
1592;DHT22;789;51.612;7.510;2023-06-24T13:54:54;30.90;1.00
1592;DHT22;789;51.612;7.510;2023-06-24T13:57:23;30.90;1.00
1592;DHT22;789;51.612;7.510;2023-06-24T13:59:50;30.90;1.00
1592;DHT22;789;51.612;7.510;2023-06-24T14:02:19;30.90;1.00
1592;DHT22;789;51.612;7.510;2023-06-24T14:04:46;30.80;1.00
1592;DHT22;789;51.612;7.510;2023-06-24T14:07:13;30.80;1.00
1592;DHT22;789;51.612;7.510;2023-06-24T14:09:40;30.80;1.00
1592;DHT22;789;51.612;7.510;2023-06-24T14:12:08;30.80;1.00
1592;DHT22;789;51.612;7.510;2023-06-24T14:14:37;30.70;1.00
1592;DHT22;789;51.612;7.510;2023-06-24T14:17:05;30.60;1.00
1592;DHT22;789;51.612;7.510;2023-06-24T14:19:34;30.60;1.00
1592;DHT22;789;51.612;7.510;2023-06-24T14:22:01;30.60;1.00
1592;DHT22;789;51.612;7.510;2023-06-24T14:24:28;30.50;1.00
1592;DHT22;789;51.612;7.510;2023-06-24T14:26:55;30.50;1.00
1592;DHT22;789;51.612;7.510;2023-06-24T14:29:22;30.50;1.00
1592;DHT22;789;51.612;7.510;2023-06-24T14:31:50;30.40;1.00
1592;DHT22;789;51.612;7.510;2023-06-24T14:34:17;30.50;1.00
1592;DHT22;789;51.612;7.510;2023-06-24T14:36:44;30.50;1.00
1592;DHT22;789;51.612;7.510;2023-06-24T14:39:15;30.40;1.00
1592;DHT22;789;51.612;7.510;2023-06-24T14:41:43;30.50;1.00
1592;DHT22;789;51.612;7.510;2023-06-24T14:44:10;30.50;1.00
1592;DHT22;789;51.612;7.510;2023-06-24T14:46:37;30.50;1.00
1592;DHT22;789;51.612;7.510;2023-06-24T14:49:05;30.50;1.00
1592;DHT22;789;51.612;7.510;2023-06-24T14:51:31;30.40;1.00
1592;DHT22;789;51.612;7.510;2023-06-24T14:53:58;30.30;1.00
1592;DHT22;789;51.612;7.510;2023-06-24T14:56:25;30.30;1.00
1592;DHT22;789;51.612;7.510;2023-06-24T14:58:52;30.20;1.00
1592;DHT22;789;51.612;7.510;2023-06-24T15:01:19;30.10;1.00
1592;DHT22;789;51.612;7.510;2023-06-24T15:03:46;30.00;1.00
1592;DHT22;789;51.612;7.510;2023-06-24T15:06:14;30.00;1.00
1592;DHT22;789;51.612;7.510;2023-06-24T15:08:41;30.00;1.00
1592;DHT22;789;51.612;7.510;2023-06-24T15:11:08;30.10;1.00
1592;DHT22;789;51.612;7.510;2023-06-24T15:13:35;30.10;1.00
1592;DHT22;789;51.612;7.510;2023-06-24T15:16:02;30.10;1.00
1592;DHT22;789;51.612;7.510;2023-06-24T15:18:29;30.10;1.00
1592;DHT22;789;51.612;7.510;2023-06-24T15:20:55;30.00;1.00
1592;DHT22;789;51.612;7.510;2023-06-24T15:23:23;30.00;1.00
1592;DHT22;789;51.612;7.510;2023-06-24T15:25:50;30.00;1.00
1592;DHT22;789;51.612;7.510;2023-06-24T15:28:17;30.00;1.00
1592;DHT22;789;51.612;7.510;2023-06-24T15:30:44;30.00;1.00
1592;DHT22;789;51.612;7.510;2023-06-24T15:33:11;30.00;1.00
1592;DHT22;789;51.612;7.510;2023-06-24T15:35:38;30.00;1.00
1592;DHT22;789;51.612;7.510;2023-06-24T15:38:04;30.00;1.00
1592;DHT22;789;51.612;7.510;2023-06-24T15:40:33;30.00;1.00
1592;DHT22;789;51.612;7.510;2023-06-24T15:42:59;30.00;1.00
1592;DHT22;789;51.612;7.510;2023-06-24T15:45:27;30.00;1.00
1592;DHT22;789;51.612;7.510;2023-06-24T15:47:54;30.10;1.00
1592;DHT22;789;51.612;7.510;2023-06-24T15:50:20;30.00;1.00
1592;DHT22;789;51.612;7.510;2023-06-24T15:52:47;30.00;1.00
1592;DHT22;789;51.612;7.510;2023-06-24T15:55:14;30.00;1.00
1592;DHT22;789;51.612;7.510;2023-06-24T15:57:43;30.00;1.00
1592;DHT22;789;51.612;7.510;2023-06-24T16:00:11;30.00;1.00
1592;DHT22;789;51.612;7.510;2023-06-24T16:02:38;30.00;1.00
1592;DHT22;789;51.612;7.510;2023-06-24T16:05:05;29.90;1.00
1592;DHT22;789;51.612;7.510;2023-06-24T16:07:32;29.90;1.00
1592;DHT22;789;51.612;7.510;2023-06-24T16:10:01;29.90;1.00
1592;DHT22;789;51.612;7.510;2023-06-24T16:12:27;30.00;1.00
1592;DHT22;789;51.612;7.510;2023-06-24T16:14:56;29.90;1.00
1592;DHT22;789;51.612;7.510;2023-06-24T16:17:22;29.90;1.00
1592;DHT22;789;51.612;7.510;2023-06-24T16:19:49;29.80;1.00
1592;DHT22;789;51.612;7.510;2023-06-24T16:22:16;29.80;1.00
1592;DHT22;789;51.612;7.510;2023-06-24T16:24:43;29.80;1.00
1592;DHT22;789;51.612;7.510;2023-06-24T16:27:10;29.70;1.00
1592;DHT22;789;51.612;7.510;2023-06-24T16:29:37;29.70;1.00
1592;DHT22;789;51.612;7.510;2023-06-24T16:32:06;29.60;1.00
1592;DHT22;789;51.612;7.510;2023-06-24T16:34:33;29.50;1.00
1592;DHT22;789;51.612;7.510;2023-06-24T16:37:00;29.50;1.00
1592;DHT22;789;51.612;7.510;2023-06-24T16:39:26;29.40;1.00
1592;DHT22;789;51.612;7.510;2023-06-24T16:41:53;29.40;1.00
1592;DHT22;789;51.612;7.510;2023-06-24T16:44:20;29.40;1.00